createdAt,value
2018-04-23T00:01:02.821Z,13.53
2018-04-23T00:03:31.415Z,10.73
2018-04-23T00:06:00.091Z,15.37
2018-04-23T00:08:28.437Z,12.40
2018-04-23T00:10:56.929Z,8.00
2018-04-23T00:13:25.307Z,10.10
2018-04-23T00:15:54.004Z,11.67
2018-04-23T00:18:22.648Z,9.30
2018-04-23T00:20:51.512Z,14.00
2018-04-23T00:23:19.992Z,11.17
2018-04-23T00:25:49.024Z,14.73
2018-04-23T00:28:17.763Z,10.87
2018-04-23T00:30:46.132Z,10.03
2018-04-23T00:33:14.506Z,10.57
2018-04-23T00:35:42.942Z,12.47
2018-04-23T00:38:12.122Z,14.80
2018-04-23T00:40:41.140Z,10.30
2018-04-23T00:43:09.488Z,10.67
2018-04-23T00:45:38.356Z,12.90
2018-04-23T00:48:07.084Z,10.67
2018-04-23T00:50:35.454Z,14.33
2018-04-23T00:53:15.949Z,11.97
2018-04-23T00:55:44.812Z,9.30
2018-04-23T00:58:13.162Z,12.13
2018-04-23T01:00:41.504Z,7.63
2018-04-23T01:03:09.858Z,19.77
2018-04-23T01:05:38.740Z,9.10
2018-04-23T01:08:07.905Z,11.93
2018-04-23T01:10:37.045Z,9.07
2018-04-23T01:13:05.814Z,13.67
2018-04-23T01:15:34.163Z,8.43
2018-04-23T01:18:03.618Z,8.37
2018-04-23T01:20:31.999Z,9.40
2018-04-23T01:23:00.347Z,8.27
2018-04-23T01:25:28.734Z,10.17
2018-04-23T01:27:57.307Z,10.60
2018-04-23T01:30:26.044Z,8.07
2018-04-23T01:32:55.280Z,8.40
2018-04-23T01:35:24.436Z,12.27
2018-04-23T01:37:53.041Z,9.37
2018-04-23T01:40:21.483Z,7.80
2018-04-23T01:42:49.827Z,9.33
2018-04-23T01:45:18.725Z,8.70
2018-04-23T01:47:47.132Z,9.63
2018-04-23T01:50:15.633Z,8.40
2018-04-23T01:52:44.197Z,7.83
2018-04-23T01:55:12.693Z,7.37
2018-04-23T01:57:41.083Z,11.93
2018-04-23T02:00:09.774Z,16.63
2018-04-23T02:02:38.131Z,9.50
2018-04-23T02:05:06.556Z,10.17
2018-04-23T02:07:35.013Z,8.33
2018-04-23T02:10:03.375Z,7.67
2018-04-23T02:12:31.870Z,7.00
2018-04-23T02:15:00.525Z,8.40
2018-04-23T02:17:29.879Z,8.23
2018-04-23T02:19:58.225Z,8.50
2018-04-23T02:22:26.567Z,8.13
2018-04-23T02:24:55.587Z,6.30
2018-04-23T02:27:25.194Z,8.40
2018-04-23T02:29:53.532Z,5.87
2018-04-23T02:32:22.161Z,6.57
2018-04-23T02:34:51.348Z,7.57
2018-04-23T02:37:20.538Z,8.37
2018-04-23T02:39:49.338Z,5.17
2018-04-23T02:42:17.977Z,5.63
2018-04-23T02:44:46.408Z,10.90
2018-04-23T02:47:14.830Z,6.00
2018-04-23T02:49:43.185Z,6.70
2018-04-23T02:52:11.737Z,10.60
2018-04-23T02:54:41.163Z,8.23
2018-04-23T02:57:10.773Z,7.07
2018-04-23T02:59:39.262Z,12.23
2018-04-23T03:02:08.837Z,6.93
2018-04-23T03:04:37.536Z,8.93
2018-04-23T03:07:06.676Z,11.03
2018-04-23T03:09:35.170Z,8.03
2018-04-23T03:12:03.543Z,10.00
2018-04-23T03:14:31.897Z,12.67
2018-04-23T03:17:00.559Z,15.87
2018-04-23T03:19:29.199Z,10.40
2018-04-23T03:21:57.906Z,11.70
2018-04-23T03:24:26.356Z,14.00
2018-04-23T03:26:54.710Z,8.60
2018-04-23T03:29:23.634Z,14.23
2018-04-23T03:31:52.932Z,7.13
2018-04-23T03:34:21.422Z,13.57
2018-04-23T03:36:49.987Z,14.67
2018-04-23T03:39:19.189Z,10.83
2018-04-23T03:41:48.032Z,10.23
2018-04-23T03:44:17.086Z,9.60
2018-04-23T03:46:46.091Z,9.07
2018-04-23T03:49:14.597Z,12.57
2018-04-23T03:51:42.964Z,9.80
2018-04-23T03:54:11.369Z,8.83
2018-04-23T03:56:40.224Z,15.50
2018-04-23T03:59:09.016Z,11.20
2018-04-23T04:01:37.716Z,120.47
2018-04-23T04:04:06.613Z,48.97
2018-04-23T04:06:35.233Z,46.27
2018-04-23T04:09:04.322Z,10.00
2018-04-23T04:11:32.796Z,10.87
2018-04-23T04:14:13.136Z,9.27
2018-04-23T04:16:54.304Z,13.30
2018-04-23T04:19:22.689Z,13.17
2018-04-23T04:21:51.277Z,7.03
2018-04-23T04:24:19.773Z,10.90
2018-04-23T04:26:49.173Z,9.23
2018-04-23T04:29:17.559Z,9.57
2018-04-23T04:31:46.473Z,11.10
2018-04-23T04:34:15.476Z,13.37
2018-04-23T04:36:43.907Z,9.17
2018-04-23T04:39:12.262Z,9.30
2018-04-23T04:41:40.686Z,8.13
2018-04-23T04:44:09.035Z,9.77
2018-04-23T04:46:37.396Z,5.97
2018-04-23T04:49:06.231Z,8.10
2018-04-23T04:51:34.831Z,9.87
2018-04-23T04:54:03.342Z,8.50
2018-04-23T04:56:31.980Z,8.50
2018-04-23T04:59:00.346Z,22.80
2018-04-23T05:01:29.133Z,10.07
2018-04-23T05:03:57.528Z,9.63
2018-04-23T05:06:26.028Z,8.23
2018-04-23T05:08:54.568Z,20.13
2018-04-23T05:11:22.960Z,9.10
2018-04-23T05:13:51.454Z,10.77
2018-04-23T05:16:19.793Z,6.60
2018-04-23T05:18:48.228Z,8.77
2018-04-23T05:21:19.147Z,7.27
2018-04-23T05:23:47.548Z,13.33
2018-04-23T05:26:16.027Z,11.13
2018-04-23T05:28:44.459Z,7.63
2018-04-23T05:31:13.269Z,8.13
2018-04-23T05:33:41.897Z,9.60
2018-04-23T05:36:10.364Z,12.23
2018-04-23T05:38:38.716Z,7.40
2018-04-23T05:41:07.057Z,15.27
2018-04-23T05:43:36.972Z,84.27
2018-04-23T05:46:05.760Z,12.00
2018-04-23T05:48:34.120Z,10.20
2018-04-23T05:51:03.014Z,13.90
2018-04-23T05:53:31.405Z,9.87
2018-04-23T05:56:00.065Z,5.93
2018-04-23T05:58:28.983Z,6.83
2018-04-23T06:00:57.354Z,16.63
2018-04-23T06:03:25.782Z,8.80
2018-04-23T06:05:54.148Z,12.50
2018-04-23T06:08:22.569Z,11.27
2018-04-23T06:10:51.267Z,4.80
2018-04-23T06:13:19.673Z,5.67
2018-04-23T06:15:48.030Z,5.10
2018-04-23T06:18:16.418Z,9.23
2018-04-23T06:20:44.759Z,8.77
2018-04-23T06:23:13.103Z,7.80
2018-04-23T06:25:41.623Z,4.83
2018-04-23T06:28:10.088Z,3.57
2018-04-23T06:30:38.468Z,3.77
2018-04-23T06:33:07.032Z,6.30
2018-04-23T06:35:35.383Z,5.77
2018-04-23T06:38:03.746Z,7.57
2018-04-23T06:40:32.096Z,3.67
2018-04-23T06:43:00.450Z,3.50
2018-04-23T06:45:29.720Z,4.63
2018-04-23T06:47:58.574Z,8.23
2018-04-23T06:50:27.744Z,9.60
2018-04-23T06:52:56.555Z,18.60
2018-04-23T06:55:25.307Z,15.50
2018-04-23T06:57:53.652Z,4.67
2018-04-23T07:00:22.104Z,4.33
2018-04-23T07:02:50.473Z,12.80
2018-04-23T07:05:18.827Z,6.77
2018-04-23T07:07:47.233Z,7.70
2018-04-23T07:10:15.975Z,5.63
2018-04-23T07:12:44.343Z,7.13
2018-04-23T07:15:12.964Z,5.37
2018-04-23T07:17:42.075Z,6.70
2018-04-23T07:20:10.975Z,6.57
2018-04-23T07:22:39.332Z,5.03
2018-04-23T07:25:07.687Z,6.60
2018-04-23T07:27:36.035Z,2.73
2018-04-23T07:30:04.390Z,9.07
2018-04-23T07:32:32.735Z,5.40
2018-04-23T07:35:01.752Z,6.90
2018-04-23T07:37:30.408Z,13.70
2018-04-23T07:39:58.824Z,8.07
2018-04-23T07:42:27.545Z,8.97
2018-04-23T07:44:56.516Z,7.37
2018-04-23T07:47:24.937Z,10.73
2018-04-23T07:49:53.820Z,5.37
2018-04-23T07:52:22.352Z,3.77
2018-04-23T07:54:50.878Z,5.23
2018-04-23T07:57:19.241Z,6.30
2018-04-23T07:59:47.711Z,5.50
2018-04-23T08:02:16.065Z,7.23
2018-04-23T08:04:44.440Z,3.70
2018-04-23T08:07:12.966Z,9.23
2018-04-23T08:09:42.236Z,12.17
2018-04-23T08:12:10.614Z,10.97
2018-04-23T08:14:39.023Z,8.90
2018-04-23T08:17:07.777Z,8.17
2018-04-23T08:19:36.126Z,6.20
2018-04-23T08:22:05.114Z,7.10
2018-04-23T08:24:34.419Z,7.97
2018-04-23T08:27:02.864Z,9.53
2018-04-23T08:29:31.300Z,7.87
2018-04-23T08:31:59.673Z,6.50
2018-04-23T08:34:28.043Z,8.97
2018-04-23T08:36:56.859Z,8.70
2018-04-23T08:39:25.286Z,5.63
2018-04-23T08:41:53.646Z,6.57
2018-04-23T08:44:22.798Z,4.97
2018-04-23T08:46:51.318Z,5.33
2018-04-23T08:49:19.906Z,6.97
2018-04-23T08:51:48.307Z,7.73
2018-04-23T08:54:16.926Z,7.10
2018-04-23T08:56:45.281Z,5.47
2018-04-23T08:59:13.960Z,5.20
2018-04-23T09:01:43.419Z,9.53
2018-04-23T09:04:12.030Z,4.57
2018-04-23T09:06:40.431Z,6.10
2018-04-23T09:09:08.775Z,4.03
2018-04-23T09:11:37.119Z,5.07
2018-04-23T09:14:07.303Z,6.73
2018-04-23T09:16:36.014Z,5.23
2018-04-23T09:19:04.868Z,4.83
2018-04-23T09:21:33.400Z,4.07
2018-04-23T09:24:01.858Z,7.90
2018-04-23T09:26:30.524Z,9.03
2018-04-23T09:28:58.880Z,8.27
2018-04-23T09:31:28.039Z,11.30
2018-04-23T09:33:56.532Z,8.00
2018-04-23T09:36:25.839Z,11.20
2018-04-23T09:38:54.633Z,10.30
2018-04-23T09:41:24.074Z,8.13
2018-04-23T09:43:54.175Z,8.77
2018-04-23T09:46:23.180Z,10.00
2018-04-23T09:48:52.212Z,6.37
2018-04-23T09:51:20.641Z,11.97
2018-04-23T09:53:50.474Z,9.53
2018-04-23T09:56:18.819Z,9.30
2018-04-23T09:58:47.183Z,6.70
2018-04-23T10:01:21.027Z,7.40
2018-04-23T10:03:51.585Z,5.53
2018-04-23T10:06:20.745Z,4.00
2018-04-23T10:08:49.622Z,5.23
2018-04-23T10:11:18.661Z,5.10
2018-04-23T10:13:47.365Z,6.63
2018-04-23T10:16:15.975Z,5.07
2018-04-23T10:18:45.378Z,6.17
2018-04-23T10:21:14.054Z,5.43
2018-04-23T10:23:42.998Z,6.60
2018-04-23T10:26:11.507Z,5.87
2018-04-23T10:28:40.851Z,9.50
2018-04-23T10:31:09.829Z,3.60
2018-04-23T10:33:38.232Z,6.13
2018-04-23T10:36:06.592Z,7.80
2018-04-23T10:38:35.000Z,8.80
2018-04-23T10:41:04.567Z,7.30
2018-04-23T10:43:32.914Z,9.53
2018-04-23T10:46:01.857Z,6.83
2018-04-23T10:48:30.637Z,8.90
2018-04-23T10:50:59.373Z,9.60
2018-04-23T10:53:27.771Z,6.53
2018-04-23T10:55:56.258Z,13.03
2018-04-23T10:58:24.856Z,15.17
2018-04-23T11:00:53.443Z,9.73
2018-04-23T11:03:21.937Z,6.47
2018-04-23T11:05:50.354Z,7.53
2018-04-23T11:08:19.005Z,7.40
2018-04-23T11:10:48.717Z,9.93
2018-04-23T11:13:17.503Z,8.57
2018-04-23T11:15:46.408Z,8.33
2018-04-23T11:18:15.394Z,5.17
2018-04-23T11:20:44.243Z,4.17
2018-04-23T11:23:12.799Z,6.03
2018-04-23T11:25:41.144Z,5.43
2018-04-23T11:28:09.766Z,4.17
2018-04-23T11:30:39.088Z,4.83
2018-04-23T11:33:07.553Z,5.07
2018-04-23T11:35:36.166Z,4.93
2018-04-23T11:38:04.527Z,4.97
2018-04-23T11:40:32.885Z,4.63
2018-04-23T11:43:01.658Z,4.97
2018-04-23T11:45:30.007Z,3.80
2018-04-23T11:47:58.380Z,10.87
2018-04-23T11:50:26.735Z,9.00
2018-04-23T11:52:57.003Z,10.43
2018-04-23T11:55:25.556Z,5.00
2018-04-23T11:57:54.601Z,7.00
2018-04-23T12:00:22.977Z,6.50
2018-04-23T12:02:51.798Z,7.10
2018-04-23T12:05:20.382Z,5.97
2018-04-23T12:07:49.239Z,7.13
2018-04-23T12:10:20.175Z,6.80
2018-04-23T12:12:50.418Z,5.80
2018-04-23T12:15:19.446Z,8.23
2018-04-23T12:17:49.031Z,8.00
2018-04-23T12:20:23.287Z,5.70
2018-04-23T12:22:55.133Z,7.63
2018-04-23T12:25:30.231Z,8.80
2018-04-23T12:27:58.694Z,9.57
2018-04-23T12:30:29.104Z,9.07
2018-04-23T12:32:59.017Z,6.83
2018-04-23T12:35:27.926Z,11.07
2018-04-23T12:37:57.267Z,9.30
2018-04-23T12:40:26.416Z,9.07
2018-04-23T12:42:54.990Z,11.10
2018-04-23T12:45:23.359Z,9.60
2018-04-23T12:47:52.216Z,9.97
2018-04-23T12:50:21.219Z,7.97
2018-04-23T12:52:49.649Z,13.00
2018-04-23T12:55:18.323Z,9.27
2018-04-23T12:57:46.683Z,8.80
2018-04-23T13:00:15.393Z,7.77
2018-04-23T13:02:43.751Z,12.33
2018-04-23T13:05:12.223Z,11.90
2018-04-23T13:07:40.601Z,12.40
2018-04-23T13:10:09.209Z,7.20
2018-04-23T13:12:37.561Z,6.90
2018-04-23T13:15:05.917Z,11.10
2018-04-23T13:17:34.884Z,5.70
2018-04-23T13:20:03.744Z,9.30
2018-04-23T13:22:35.315Z,12.87
2018-04-23T13:25:04.265Z,10.47
2018-04-23T13:27:32.678Z,6.73
2018-04-23T13:30:04.736Z,12.37
2018-04-23T13:32:33.541Z,9.70
2018-04-23T13:35:02.667Z,8.70
2018-04-23T13:37:31.092Z,10.77
2018-04-23T13:39:59.984Z,21.00
2018-04-23T13:42:28.485Z,10.13
2018-04-23T13:44:57.617Z,7.43
2018-04-23T13:47:25.993Z,15.80
2018-04-23T13:49:54.402Z,19.17
2018-04-23T13:52:22.979Z,15.30
2018-04-23T13:54:52.445Z,12.00
2018-04-23T13:57:21.651Z,10.63
2018-04-23T13:59:51.232Z,7.70
2018-04-23T14:02:20.938Z,12.40
2018-04-23T14:04:49.708Z,11.57
2018-04-23T14:07:20.888Z,11.33
2018-04-23T14:09:52.517Z,10.73
2018-04-23T14:12:23.852Z,8.10
2018-04-23T14:14:53.935Z,11.63
2018-04-23T14:17:22.861Z,34.63
2018-04-23T14:19:51.443Z,26.70
2018-04-23T14:22:19.812Z,24.33
2018-04-23T14:24:48.684Z,15.03
2018-04-23T14:27:20.758Z,16.87
2018-04-23T14:32:23.964Z,9.43
2018-04-23T14:34:52.496Z,15.13
2018-04-23T14:37:20.953Z,15.37
2018-04-23T14:39:49.380Z,14.87
2018-04-23T14:42:17.768Z,18.37
2018-04-23T14:44:46.376Z,16.97
2018-04-23T14:47:15.138Z,21.07
2018-04-23T14:49:43.506Z,26.33
2018-04-23T14:52:11.865Z,23.37
2018-04-23T14:54:40.997Z,23.67
2018-04-23T14:57:09.392Z,28.40
2018-04-23T14:59:37.766Z,26.63
2018-04-23T15:02:06.189Z,31.40
2018-04-23T15:04:34.556Z,30.20
2018-04-23T15:07:02.933Z,24.57
2018-04-23T15:09:31.760Z,28.00
2018-04-23T15:12:00.477Z,26.90
2018-04-23T15:14:28.962Z,32.47
2018-04-23T15:16:57.688Z,34.10
2018-04-23T15:19:26.234Z,28.53
2018-04-23T15:21:55.470Z,32.40
2018-04-23T15:24:23.864Z,36.03
2018-04-23T15:26:52.247Z,28.20
2018-04-23T15:29:21.157Z,36.93
2018-04-23T15:31:49.744Z,32.40
2018-04-23T15:34:18.338Z,25.90
2018-04-23T15:36:46.743Z,29.03
2018-04-23T15:39:15.507Z,29.93
2018-04-23T15:41:43.962Z,29.57
2018-04-23T15:44:12.342Z,30.50
2018-04-23T15:46:40.842Z,26.90
2018-04-23T15:49:09.688Z,23.37
2018-04-23T15:51:38.881Z,21.90
2018-04-23T15:54:11.452Z,18.97
2018-04-23T15:56:39.848Z,17.77
2018-04-23T15:59:08.225Z,22.40
2018-04-23T16:01:37.086Z,23.43
2018-04-23T16:04:05.829Z,19.97
2018-04-23T16:06:34.522Z,19.83
2018-04-23T16:09:02.904Z,44.70
2018-04-23T16:11:31.316Z,20.73
2018-04-23T16:14:00.022Z,22.50
2018-04-23T16:16:28.906Z,16.33
2018-04-23T16:18:58.599Z,17.20
2018-04-23T16:21:26.976Z,21.47
2018-04-23T16:23:55.369Z,19.37
2018-04-23T16:26:23.919Z,20.50
2018-04-23T16:28:52.663Z,21.80
2018-04-23T16:31:21.596Z,17.20
2018-04-23T16:33:51.049Z,18.00
2018-04-23T16:36:19.545Z,17.70
2018-04-23T16:38:48.357Z,22.40
2018-04-23T16:41:18.120Z,22.13
2018-04-23T16:43:46.498Z,17.20
2018-04-23T16:46:19.547Z,42.10
2018-04-23T16:48:47.956Z,20.10
2018-04-23T16:51:16.534Z,22.67
2018-04-23T16:53:44.969Z,21.53
2018-04-23T16:56:13.700Z,23.80
2018-04-23T16:58:42.096Z,22.13
2018-04-23T17:01:10.511Z,20.23
2018-04-23T17:03:39.119Z,24.57
2018-04-23T17:06:07.524Z,24.60
2018-04-23T17:08:35.909Z,21.97
2018-04-23T17:11:04.431Z,22.67
2018-04-23T17:13:33.196Z,24.53
2018-04-23T17:16:03.015Z,22.33
2018-04-23T17:18:31.860Z,20.47
2018-04-23T17:21:00.693Z,24.80
2018-04-23T17:23:29.157Z,22.67
2018-04-23T17:25:58.147Z,24.57
2018-04-23T17:28:26.867Z,24.80
2018-04-23T17:30:55.639Z,23.10
2018-04-23T17:33:24.382Z,25.13
2018-04-23T17:35:52.798Z,28.00
2018-04-23T17:38:23.088Z,30.83
2018-04-23T17:40:52.241Z,26.03
2018-04-23T17:43:21.600Z,28.77
2018-04-23T17:45:52.079Z,31.93
2018-04-23T17:50:54.025Z,28.27
2018-04-23T17:53:23.372Z,30.17
2018-04-23T17:55:53.955Z,32.57
2018-04-23T17:58:23.565Z,24.23
2018-04-23T18:00:52.316Z,34.07
2018-04-23T18:03:26.137Z,48.97
2018-04-23T18:05:54.599Z,48.90
2018-04-23T18:08:23.340Z,51.63
2018-04-23T18:10:53.156Z,30.30
2018-04-23T18:13:25.479Z,54.80
2018-04-23T18:15:54.045Z,31.10
2018-04-23T18:18:23.268Z,31.27
2018-04-23T18:20:52.645Z,28.17
2018-04-23T18:23:21.129Z,23.63
2018-04-23T18:25:49.498Z,29.60
2018-04-23T18:28:17.890Z,46.77
2018-04-23T18:30:46.632Z,28.80
2018-04-23T18:33:16.553Z,22.20
2018-04-23T18:35:47.168Z,23.77
2018-04-23T18:38:15.965Z,28.53
2018-04-23T18:40:45.128Z,27.93
2018-04-23T18:43:14.758Z,27.87
2018-04-23T18:45:43.870Z,26.13
2018-04-23T18:48:12.267Z,28.07
2018-04-23T18:50:41.472Z,23.77
2018-04-23T18:53:10.847Z,17.70
2018-04-23T18:55:40.106Z,22.80
2018-04-23T18:58:08.454Z,24.03
2018-04-23T19:00:37.474Z,21.27
2018-04-23T19:03:06.224Z,18.97
2018-04-23T19:05:36.455Z,20.13
2018-04-23T19:08:05.287Z,21.40
2018-04-23T19:10:33.720Z,19.17
2018-04-23T19:13:02.106Z,16.57
2018-04-23T19:15:30.569Z,21.40
2018-04-23T19:18:05.457Z,16.17
2018-04-23T19:20:36.352Z,17.10
2018-04-23T19:23:04.880Z,18.70
2018-04-23T19:25:36.243Z,19.43
2018-04-23T19:28:07.357Z,15.10
2018-04-23T19:30:36.112Z,18.87
2018-04-23T19:33:05.351Z,21.37
2018-04-23T19:35:34.052Z,20.63
2018-04-23T19:38:02.550Z,14.47
2018-04-23T19:40:32.463Z,17.97
2018-04-23T19:43:01.355Z,17.63
2018-04-23T19:45:29.813Z,16.13
2018-04-23T19:48:00.253Z,20.97
2018-04-23T19:50:28.657Z,14.50
2018-04-23T19:52:57.136Z,14.30
2018-04-23T19:55:25.596Z,15.40
2018-04-23T19:57:53.984Z,12.33
2018-04-23T20:00:22.663Z,12.53
2018-04-23T20:02:51.225Z,14.47
2018-04-23T20:05:21.105Z,12.27
2018-04-23T20:07:52.880Z,14.17
2018-04-23T20:10:21.373Z,13.50
2018-04-23T20:12:50.483Z,13.63
2018-04-23T20:15:19.776Z,12.73
2018-04-23T20:17:48.357Z,14.20
2018-04-23T20:20:16.849Z,11.80
2018-04-23T20:22:45.589Z,17.27
2018-04-23T20:25:17.015Z,8.17
2018-04-23T20:27:45.610Z,9.33
2018-04-23T20:30:14.020Z,8.17
2018-04-23T20:32:42.719Z,9.47
2018-04-23T20:35:11.528Z,8.27
2018-04-23T20:37:40.217Z,7.23
2018-04-23T20:40:08.725Z,8.23
2018-04-23T20:42:37.184Z,6.67
2018-04-23T20:45:06.630Z,9.73
2018-04-23T20:47:36.060Z,13.97
2018-04-23T20:50:04.512Z,9.73
2018-04-23T20:52:32.872Z,9.23
2018-04-23T20:55:02.100Z,8.30
2018-04-23T20:57:31.873Z,8.20
2018-04-23T21:00:00.206Z,9.90
2018-04-23T21:02:28.829Z,7.33
2018-04-23T21:04:58.604Z,6.87
2018-04-23T21:07:27.668Z,12.43
2018-04-23T21:09:56.066Z,8.13
2018-04-23T21:12:24.675Z,9.00
2018-04-23T21:14:53.043Z,9.93
2018-04-23T21:17:22.352Z,9.33
2018-04-23T21:19:53.542Z,8.83
2018-04-23T21:22:22.691Z,10.10
2018-04-23T21:24:51.095Z,9.83
2018-04-23T21:27:19.459Z,8.73
2018-04-23T21:29:48.417Z,8.33
2018-04-23T21:32:16.935Z,12.53
2018-04-23T21:34:46.681Z,9.27
2018-04-23T21:37:15.042Z,11.10
2018-04-23T21:39:44.654Z,10.70
2018-04-23T21:42:13.558Z,8.57
2018-04-23T21:44:51.909Z,11.40
2018-04-23T21:47:21.268Z,7.23
2018-04-23T21:49:49.988Z,7.70
2018-04-23T21:52:19.403Z,6.53
2018-04-23T21:57:37.357Z,7.13
2018-04-23T22:00:05.792Z,7.97
2018-04-23T22:02:47.078Z,9.93
2018-04-23T22:05:15.621Z,16.03
2018-04-23T22:07:43.960Z,7.67
2018-04-23T22:10:12.316Z,7.50
2018-04-23T22:12:40.830Z,7.43
2018-04-23T22:15:09.577Z,12.47
2018-04-23T22:17:38.108Z,7.63
2018-04-23T22:20:11.263Z,10.60
2018-04-23T22:22:40.122Z,5.97
2018-04-23T22:25:08.702Z,7.90
2018-04-23T22:27:37.063Z,9.73
2018-04-23T22:30:05.437Z,7.23
2018-04-23T22:32:34.830Z,10.27
2018-04-23T22:35:03.978Z,8.50
2018-04-23T22:37:32.687Z,7.63
2018-04-23T22:40:01.324Z,9.10
2018-04-23T22:42:29.859Z,11.83
2018-04-23T22:44:58.542Z,7.97
2018-04-23T22:47:27.492Z,6.87
2018-04-23T22:49:56.126Z,7.13
2018-04-23T22:52:24.661Z,7.50
2018-04-23T22:54:54.468Z,5.73
2018-04-23T22:57:23.486Z,10.90
2018-04-23T22:59:52.231Z,7.47
2018-04-23T23:02:21.736Z,10.37
2018-04-23T23:04:50.199Z,6.17
2018-04-23T23:07:18.734Z,7.27
2018-04-23T23:09:47.905Z,9.23
2018-04-23T23:12:16.247Z,7.73
2018-04-23T23:14:45.705Z,8.60
2018-04-23T23:17:14.160Z,8.30
2018-04-23T23:19:43.075Z,12.23
2018-04-23T23:22:14.375Z,7.60
2018-04-23T23:24:43.243Z,9.73
2018-04-23T23:27:12.385Z,16.43
2018-04-23T23:29:41.288Z,11.80
2018-04-23T23:32:09.745Z,10.30
2018-04-23T23:34:38.513Z,14.60
2018-04-23T23:37:07.434Z,13.93
2018-04-23T23:39:35.827Z,20.50
2018-04-23T23:42:04.345Z,18.37
2018-04-23T23:44:32.691Z,14.43
2018-04-23T23:47:01.041Z,13.60
2018-04-23T23:49:29.407Z,16.63
2018-04-23T23:51:57.849Z,12.37
2018-04-23T23:54:26.193Z,15.43
2018-04-23T23:56:54.601Z,15.30
2018-04-23T23:59:23.144Z,11.73
